createdAt,value
2022-10-17T00:03:28.269Z,14.57
2022-10-17T00:08:33.537Z,14.39
2022-10-17T00:13:37.267Z,13.80
2022-10-17T00:18:40.928Z,14.47
2022-10-17T00:23:47.795Z,14.79
2022-10-17T00:28:52.390Z,14.59
2022-10-17T00:33:56.181Z,14.79
2022-10-17T00:39:01.347Z,15.43
2022-10-17T00:44:08.954Z,14.93
2022-10-17T00:49:13.625Z,14.23
2022-10-17T00:54:20.900Z,14.79
2022-10-17T00:59:25.776Z,14.25
2022-10-17T01:04:31.751Z,14.62
2022-10-17T01:09:37.912Z,13.98
2022-10-17T01:14:47.077Z,13.83
2022-10-17T01:20:00.628Z,14.28
2022-10-17T01:25:22.729Z,14.47
2022-10-17T01:30:36.371Z,13.87
2022-10-17T01:35:44.109Z,14.30
2022-10-17T01:40:50.901Z,14.25
2022-10-17T01:45:58.977Z,14.21
2022-10-17T01:51:07.067Z,14.98
2022-10-17T01:56:11.702Z,14.13
2022-10-17T02:01:17.187Z,14.01
2022-10-17T02:06:22.600Z,14.46
2022-10-17T02:11:28.216Z,14.31
2022-10-17T02:16:36.505Z,13.86
2022-10-17T02:21:45.453Z,13.90
2022-10-17T02:26:57.138Z,13.74
2022-10-17T02:32:02.874Z,14.11
2022-10-17T02:37:10.265Z,13.94
2022-10-17T02:42:15.754Z,13.86
2022-10-17T02:47:25.263Z,14.42
2022-10-17T02:52:35.664Z,14.67
2022-10-17T02:57:43.506Z,14.62
2022-10-17T03:02:48.241Z,14.43
2022-10-17T03:07:53.586Z,14.02
2022-10-17T03:12:57.579Z,14.19
2022-10-17T03:18:02.022Z,14.27
2022-10-17T03:23:08.499Z,13.47
2022-10-17T03:28:13.397Z,13.93
2022-10-17T03:33:17.855Z,13.99
2022-10-17T03:38:24.321Z,14.63
2022-10-17T03:43:29.094Z,14.47
2022-10-17T03:48:33.969Z,14.39
2022-10-17T03:53:39.896Z,13.83
2022-10-17T03:58:45.285Z,14.35
2022-10-17T04:03:52.607Z,13.91
2022-10-17T04:08:58.604Z,13.58
2022-10-17T04:14:09.240Z,14.35
2022-10-17T04:19:15.224Z,14.52
2022-10-17T04:24:25.281Z,14.43
2022-10-17T04:29:55.146Z,14.74
2022-10-17T04:35:02.171Z,14.02
2022-10-17T04:40:08.756Z,13.65
2022-10-17T04:45:13.510Z,13.55
2022-10-17T04:50:18.239Z,14.27
2022-10-17T04:55:41.640Z,14.15
2022-10-17T05:00:45.597Z,13.94
2022-10-17T05:05:56.746Z,14.25
2022-10-17T05:11:04.871Z,13.48
2022-10-17T05:16:09.001Z,13.56
2022-10-17T05:21:12.924Z,13.99
2022-10-17T05:26:18.727Z,14.74
2022-10-17T05:31:22.583Z,14.24
2022-10-17T05:36:26.647Z,14.33
2022-10-17T05:41:32.642Z,13.94
2022-10-17T05:46:36.605Z,15.13
2022-10-17T05:51:41.247Z,15.46
2022-10-17T05:56:46.543Z,15.95
2022-10-17T06:01:51.350Z,16.63
2022-10-17T06:06:56.316Z,15.45
2022-10-17T06:12:01.753Z,15.80
2022-10-17T06:17:06.903Z,15.55
2022-10-17T06:22:10.706Z,16.07
2022-10-17T06:27:20.361Z,16.00
2022-10-17T06:32:24.315Z,16.85
2022-10-17T06:37:35.353Z,16.61
2022-10-17T06:42:43.762Z,17.04
2022-10-17T06:48:03.356Z,16.64
2022-10-17T06:53:19.303Z,18.22
2022-10-17T06:58:30.518Z,17.91
2022-10-17T07:03:44.931Z,17.37
2022-10-17T07:08:50.065Z,17.59
2022-10-17T07:13:56.866Z,17.80
2022-10-17T07:19:00.822Z,18.65
2022-10-17T07:24:10.650Z,18.57
2022-10-17T07:29:17.532Z,17.82
2022-10-17T07:34:38.640Z,18.46
2022-10-17T07:39:43.671Z,18.11
2022-10-17T07:44:49.000Z,18.11
2022-10-17T07:49:53.252Z,18.13
2022-10-17T07:54:56.873Z,18.21
2022-10-17T08:00:02.204Z,18.25
2022-10-17T08:05:16.154Z,18.86
2022-10-17T08:10:20.189Z,18.46
2022-10-17T08:15:29.450Z,19.50
2022-10-17T08:20:35.774Z,19.86
2022-10-17T08:25:39.874Z,19.44
2022-10-17T08:30:45.021Z,19.71
2022-10-17T08:35:48.738Z,20.12
2022-10-17T08:40:53.238Z,20.27
2022-10-17T08:46:03.103Z,21.18
2022-10-17T08:51:10.584Z,21.42
2022-10-17T08:56:19.749Z,20.91
2022-10-17T09:02:04.515Z,21.21
2022-10-17T09:08:10.888Z,21.48
2022-10-17T09:51:21.821Z,22.81
2022-10-17T09:57:02.294Z,21.28
2022-10-17T10:02:24.323Z,21.43
2022-10-17T10:07:33.014Z,22.27
2022-10-17T10:12:42.813Z,22.70
2022-10-17T10:18:06.926Z,22.80
2022-10-17T10:23:22.818Z,22.57
2022-10-17T10:28:41.457Z,22.22
2022-10-17T10:33:56.779Z,22.85
2022-10-17T10:39:35.387Z,22.78
2022-10-17T10:44:45.061Z,21.92
2022-10-17T10:49:49.674Z,21.63
2022-10-17T10:55:00.994Z,22.57
2022-10-17T11:00:09.790Z,22.82
2022-10-17T11:05:18.928Z,23.10
2022-10-17T11:10:29.640Z,23.03
2022-10-17T11:15:37.898Z,22.51
2022-10-17T11:20:46.188Z,22.33
2022-10-17T11:31:08.411Z,22.20
2022-10-17T11:36:14.460Z,22.80
2022-10-17T11:41:20.435Z,23.29
2022-10-17T11:46:27.530Z,23.48
2022-10-17T11:57:09.147Z,26.10
2022-10-17T12:02:21.862Z,26.81
2022-10-17T12:07:29.341Z,28.15
2022-10-17T12:12:34.561Z,28.16
2022-10-17T12:17:40.887Z,27.98
2022-10-17T12:22:48.147Z,27.18
2022-10-17T12:27:52.286Z,27.35
2022-10-17T12:33:06.103Z,28.40
2022-10-17T12:38:21.738Z,28.07
2022-10-17T12:43:42.749Z,27.86
2022-10-17T12:49:03.060Z,28.54
2022-10-17T12:54:16.774Z,28.68
2022-10-17T12:59:22.526Z,28.40
2022-10-17T13:04:28.267Z,28.16
2022-10-17T13:09:35.038Z,28.43
2022-10-17T13:14:55.009Z,27.92
2022-10-17T13:20:02.004Z,27.64
2022-10-17T13:25:10.585Z,28.23
2022-10-17T13:30:29.346Z,27.81
2022-10-17T13:41:30.546Z,26.49
2022-10-17T13:46:38.918Z,26.53
2022-10-17T13:51:55.530Z,26.94
2022-10-17T13:57:22.035Z,26.37
2022-10-17T14:02:31.607Z,26.28
2022-10-17T14:08:10.451Z,26.25
2022-10-17T14:13:28.275Z,26.58
2022-10-17T14:18:37.845Z,26.38
2022-10-17T14:24:15.441Z,26.73
2022-10-17T14:29:22.958Z,26.09
2022-10-17T14:34:32.599Z,26.40
2022-10-17T14:39:52.343Z,26.36
2022-10-17T14:45:08.665Z,26.10
2022-10-17T14:50:22.797Z,25.88
2022-10-17T14:55:33.015Z,25.66
2022-10-17T15:00:43.191Z,25.39
2022-10-17T15:05:59.666Z,25.12
2022-10-17T15:11:14.548Z,24.51
2022-10-17T15:16:34.572Z,24.23
2022-10-17T15:21:46.962Z,23.84
2022-10-17T15:32:03.925Z,22.43
2022-10-17T15:37:15.052Z,21.97
2022-10-17T15:42:21.332Z,20.58
2022-10-17T15:47:26.684Z,19.92
2022-10-17T15:52:31.082Z,19.91
2022-10-17T15:57:39.231Z,19.55
2022-10-17T16:02:46.769Z,18.86
2022-10-17T16:07:52.344Z,19.05
2022-10-17T16:12:59.315Z,18.95
2022-10-17T16:18:07.394Z,19.19
2022-10-17T16:23:13.976Z,19.17
2022-10-17T16:28:19.273Z,18.92
2022-10-17T16:33:23.310Z,19.20
2022-10-17T16:38:36.408Z,18.83
2022-10-17T16:43:44.937Z,18.70
2022-10-17T16:48:49.371Z,18.41
2022-10-17T16:53:54.687Z,18.11
2022-10-17T16:59:00.475Z,18.34
2022-10-17T17:04:11.012Z,18.57
2022-10-17T17:09:17.755Z,18.36
2022-10-17T17:14:25.813Z,17.80
2022-10-17T17:19:32.065Z,18.09
2022-10-17T17:24:35.787Z,17.94
2022-10-17T17:29:44.938Z,18.21
2022-10-17T17:34:49.153Z,17.56
2022-10-17T17:39:56.063Z,17.65
2022-10-17T17:45:04.061Z,17.78
2022-10-17T17:50:08.561Z,17.74
2022-10-17T17:55:12.889Z,17.43
2022-10-17T18:00:21.273Z,17.60
2022-10-17T18:05:30.766Z,17.65
2022-10-17T18:10:37.684Z,17.26
2022-10-17T18:15:45.931Z,17.46
2022-10-17T18:20:53.361Z,17.81
2022-10-17T18:26:01.066Z,17.80
2022-10-17T18:31:07.949Z,17.28
2022-10-17T18:36:17.489Z,17.31
2022-10-17T18:41:25.447Z,17.56
2022-10-17T18:46:52.545Z,17.54
2022-10-17T18:52:00.682Z,17.55
2022-10-17T18:57:04.662Z,16.96
2022-10-17T19:02:13.056Z,16.71
2022-10-17T19:07:20.181Z,16.55
2022-10-17T19:12:26.106Z,16.28
2022-10-17T19:17:31.475Z,16.42
2022-10-17T19:22:41.585Z,16.57
2022-10-17T19:27:46.789Z,16.25
2022-10-17T19:32:51.901Z,16.29
2022-10-17T19:37:55.532Z,16.10
2022-10-17T19:42:59.544Z,16.33
2022-10-17T19:48:16.953Z,16.13
2022-10-17T19:53:21.435Z,16.04
2022-10-17T19:58:25.452Z,16.34
2022-10-17T20:03:31.587Z,16.22
2022-10-17T20:08:35.580Z,16.36
2022-10-17T20:13:40.030Z,16.40
2022-10-17T20:18:45.797Z,16.69
2022-10-17T20:23:50.678Z,16.92
2022-10-17T20:28:54.716Z,16.25
2022-10-17T20:34:00.576Z,16.32
2022-10-17T20:39:04.289Z,16.23
2022-10-17T20:44:08.449Z,15.59
2022-10-17T20:49:15.040Z,15.76
2022-10-17T20:54:18.701Z,16.29
2022-10-17T20:59:23.393Z,15.37
2022-10-17T21:04:46.709Z,16.19
2022-10-17T21:09:50.910Z,16.20
2022-10-17T21:14:54.583Z,15.76
2022-10-17T21:19:59.752Z,15.31
2022-10-17T21:25:03.420Z,15.70
2022-10-17T21:35:18.154Z,15.65
2022-10-17T21:40:21.869Z,15.89
2022-10-17T21:45:26.141Z,16.51
2022-10-17T21:50:32.475Z,15.79
2022-10-17T21:55:37.285Z,15.83
2022-10-17T22:00:41.282Z,15.73
2022-10-17T22:05:46.844Z,15.78
2022-10-17T22:10:50.558Z,14.81
2022-10-17T22:30:54.614Z,14.86
2022-10-17T22:35:58.562Z,15.15
2022-10-17T22:41:02.494Z,14.60
2022-10-17T22:46:09.082Z,15.17
2022-10-17T22:51:12.965Z,14.59
2022-10-17T22:56:17.843Z,15.49
2022-10-17T23:01:24.917Z,15.30
2022-10-17T23:06:29.925Z,15.42
2022-10-17T23:11:33.840Z,15.86
2022-10-17T23:16:38.953Z,15.03
2022-10-17T23:21:43.148Z,15.04
2022-10-17T23:26:46.949Z,14.69
2022-10-17T23:31:54.866Z,14.29
2022-10-17T23:36:58.666Z,15.19
2022-10-17T23:42:02.386Z,15.13
2022-10-17T23:47:09.704Z,14.61
2022-10-17T23:52:17.361Z,15.28
2022-10-17T23:57:22.322Z,15.65
